This is the latest recevied weather packets stored in our database for station/object Milesovka. If no packets are shown the sender has not sent any weather packets the latest 1 day(s).
| Time | Temp. | Humidity | Pressure | Rain* | Wind** | Luminosity | Snow |
|---|---|---|---|---|---|---|---|
| 1778012280 | 12.78° C | 93% | - | - | 7.15 m/s, 40° | - | - |
| 1778008698 | 12.78° C | 93% | - | - | 7.15 m/s, 40° | - | - |
| 1778005082 | 13.89° C | 87% | - | - | 10.73 m/s, 20° | - | - |
| 1778001465 | 13.89° C | 87% | - | - | 10.73 m/s, 10° | - | - |
| 1777997925 | 16.11° C | 82% | - | - | 8.05 m/s, 20° | - | - |
| 1777994264 | 17.78° C | 72% | - | - | 8.05 m/s, 10° | - | - |
| 1777990666 | 20° C | 60% | - | - | 7.15 m/s, 360° | - | - |
| 1777987066 | 20° C | 60% | - | - | 6.26 m/s, 20° | - | - |
| 1777983465 | 20° C | 60% | - | - | 4.02 m/s, 30° | - | - |
| 1777979865 | 20° C | 60% | - | - | 3.13 m/s, 30° | - | - |
| 1777976265 | 17.78° C | 63% | - | - | 4.02 m/s, 30° | - | - |
| 1777973166 | 17.22° C | 67% | - | - | 4.02 m/s, 10° | - | - |
| 1777972664 | 17.22° C | 67% | - | - | 4.02 m/s, 10° | - | - |
| 1777969065 | 16.11° C | 67% | - | - | 4.02 m/s, 20° | - | - |
| 1777965465 | 13.89° C | 76% | - | - | 3.13 m/s, 20° | - | - |
| 1777961865 | 15° C | 62% | - | - | 0.89 m/s, 80° | - | - |
| 1777958265 | 13.89° C | 67% | - | - | 0.89 m/s, 110° | - | - |
| 1777954664 | 12.78° C | 71% | - | - | 4.02 m/s, 20° | - | - |
| 1777951064 | 12.78° C | 76% | - | - | 7.15 m/s, 20° | - | - |
| 1777947464 | 12.78° C | 76% | - | - | 5.36 m/s, 10° | - | - |
| 1777943866 | 12.78° C | 71% | - | - | 5.36 m/s, 80° | - | - |
| 1777940265 | 13.89° C | 67% | - | - | 7.15 m/s, 120° | - | - |
| 1777936666 | 15° C | 62% | - | - | 7.15 m/s, 70° | - | - |
| 1777933066 | 13.89° C | 67% | - | - | 8.94 m/s, 40° | - | - |
| 1777929464 | 13.89° C | 71% | - | - | 8.05 m/s, 40° | - | - |
* Rain since midnight (hover to see other rain measurements)
** Current wind speed in m/s (hover to see current wind gust speed)